Bango, Nevada Weather observations

Data are for 10 minute period ending at time listed.
 Day   Time    Ave.   Ave.  Ave.  Vector   Max.   Stn.    Total    Solar   Ave.  
  of    of     Air    Rel.  Wind   Wind    Wind   Baro.  Precip.   Rad.    Soil  
Year   Day     Temp.  Hum.  Speed  Dir.    Gust   Pres.                    Temp. 
2016   (PST)    F      %     mph   deg.    mph     mb.     in.     W/m2     F    
--------------------------------------------------------------------------------- 
  42    7:30   34.3    93    1.7   157      3.3   883.3    0.00      94     4.6  
  42    7:40   33.6    94    1.8   228      3.3   883.4    0.00     125     4.6  
  42    7:50   34.5    95    3.6   245      5.1   883.5    0.00      85     4.5  
  42    8:00   35.7    95    2.6   228      3.3   883.6    0.00     139     4.5  
  42    8:10   36.5    92    3.2   216      4.2   883.6    0.00     149     4.5  
  42    8:20   36.5    93    3.0   208      4.2   883.6    0.00     143     4.4  
  42    8:30   36.6    92    3.5   211      4.2   883.6    0.00     164     4.4  
  42    8:40   37.0    92    4.0   203      5.1   883.6    0.00     179     4.4  
  42    8:50   38.0    91    2.6   189      4.2   883.6    0.00     215     4.3  
  42    9:00   38.7    89    2.6   179      4.2   883.6    0.00     186     4.3  
  42    9:10   39.6    87    2.9   198      5.1   883.7    0.00     196     4.3  
  42    9:20   39.7    86    3.6   194      5.1   883.7    0.00     201     4.3  
  42    9:30   40.5    86    2.2   197      3.3   883.7    0.00     216     4.3  
  42    9:40   41.9    82    2.8   191      3.3   883.8    0.00     349     4.3  
  42    9:50   43.4    78    2.7   146      3.3   883.7    0.00     433     4.2  
  42   10:00   45.7    73    2.7   130      4.2   883.6    0.00     496     4.3  
  42   10:10   46.2    70    3.2   156      5.1   883.5    0.00     462     4.3  
  42   10:20   46.2    69    3.9   167      6.0   883.4    0.00     474     4.3  
  42   10:30   46.3    68    3.8   182      6.0   883.4    0.00     399     4.3  
  42   10:40   47.4    67    3.5   188      6.0   883.3    0.00     476     4.3  
  42   10:50   48.1    64    4.5   192      6.0   883.2    0.00     525     4.3  
  42   11:00   47.7    64    4.2   182      6.0   883.1    0.00     264     4.4  
  42   11:10   48.6    65    3.9   167      6.0   883.0    0.00     563     4.5  
  42   11:20   49.1    64    3.8   159      6.0   882.7    0.00     517     4.5  
  42   11:30   49.9    63    3.4   145      6.9   882.7    0.00     587     4.6  
  42   11:40   51.1    61    1.5   134      4.2   882.5    0.00     634     4.7  
  42   11:50   51.7    58    2.3   106      4.2   882.2    0.00     644     4.8  
  42   12:00   52.7    56    1.8    99      4.2   882.1    0.00     624     4.8  
  42   12:10   52.5    58    2.0   154      5.1   882.0    0.00     510     4.9  
  42   12:20   52.4    58    1.1   160      4.2   881.8    0.00     467     5.0  
  42   12:30   52.6    56    2.4   134      6.9   881.7    0.00     610     5.2  
  42   12:40   53.6    54    1.8   152      4.2   881.5    0.00     481     5.3  
  42   12:50   53.1    56    1.1   111      5.1   881.3    0.00     437     5.4  
  42   13:00   53.4    56    2.1   155      5.1   881.2    0.00     481     5.5  
  42   13:10   53.6    54    1.2   173      5.1   881.1    0.00     505     5.6  
  42   13:20   55.0    53    0.6   106      0.6   880.9    0.00     427     5.8  
  42   13:30   55.1    55    0.6   243      0.6   880.8    0.00     420     5.9  
  42   13:40   54.5    56    1.5   121      4.2   880.6    0.00     383     6.1  
  42   13:50   54.3    54    1.7   125      5.1   880.6    0.00     335     6.2  
  42   14:00   54.2    54    0.9    86      4.2   880.5    0.00     300     6.3  
  42   14:10   54.1    53    0.6    31      0.6   880.5    0.00     355     6.5  
  42   14:20   54.5    53    0.6    59      0.6   880.5    0.00     337     6.6  
  42   14:30   54.5    51    0.6    34      0.6   880.4    0.00     275     6.8  
  42   14:40   54.5    52    1.6    74      5.1   880.4    0.00     246     6.9  
  42   14:50   54.8    51    0.8    92      4.2   880.4    0.00     194     7.0  
  42   15:00   54.5    52    0.6   129      0.6   880.4    0.00     188     7.1  
  42   15:10   54.5    52    0.6   117      0.6   880.4    0.00     175     7.3  
  42   15:20   54.6    51    0.6    77      0.6   880.6    0.00     142     7.4  
  42   15:30   54.7    51    0.6    23      0.6   880.6    0.00     165     7.5  
  42   15:40   55.1    51    0.6   115      0.6   880.6    0.00     199     7.6  
  42   15:50   55.4    50    0.6   127      0.6   880.6    0.00     184     7.7  
  42   16:00   55.2    51    0.6   109      0.6   880.6    0.00     212     7.8  
  42   16:10   55.3    50    1.4   112      5.1   880.8    0.00     143     7.9  
  42   16:20   54.6    49    0.6   131      0.6   880.8    0.00      90     8.0  
  42   16:30   54.2    50    0.6   122      0.6   880.8    0.00      71     8.0  
  42   16:40   54.0    51    0.6   112      0.6   880.8    0.00      57     8.1  
  42   16:50   53.1    59    0.6   123      0.6   880.8    0.00      44     8.1  
  42   17:00   52.5    59    0.6   142      0.6   880.8    0.00      35     8.2  
  42   17:10   51.7    65    0.6   168      0.6   880.8    0.00      24     8.2  
  42   17:20   51.2    65    0.6   174      0.6   880.9    0.00      12     8.3  
  42   17:30   50.1    68    0.6   193      0.6   880.9    0.00       4     8.3  
  42   17:40   48.9    71    0.6   246      0.6   880.9    0.00       1     8.3  
  42   17:50   47.0    76    0.6   270      0.6   881.2    0.00       0     8.4  
  42   18:00   45.9    76    2.3   272      4.2   881.3    0.00       0     8.4  
  42   18:10   45.9    76    0.6   244      0.6   881.4    0.00       0     8.4  
  42   18:20   44.6    79    0.6   241      0.6   881.5    0.00       0     8.4  
  42   18:30   43.6    81    3.5   237      6.0   881.6    0.00       0     8.4  
  42   18:40   43.2    81    5.8   258      7.8   881.7    0.00       0     8.4  
  42   18:50   42.5    82    4.7   237      6.0   881.8    0.00       0     8.3  
  42   19:00   43.5    78    5.5   227      7.8   881.8    0.00       0     8.3  
  42   19:10   43.1    79    5.2   231      7.8   881.7    0.00       0     8.3  
  42   19:20   42.1    81    5.1   242      6.9   881.7    0.00       0     8.3  
  42   19:30   41.5    83    4.4   233      6.0   881.8    0.00       0     8.2  
  42   19:40   41.1    84    4.4   242      6.0   881.8    0.00       0     8.2  
  42   19:50   40.4    85    3.8   220      5.1   881.7    0.00       0     8.2  
  42   20:00   40.4    84    3.3   217      5.1   881.7    0.00       0     8.1  
  42   20:10   40.2    85    4.6   232      6.9   881.8    0.00       0     8.1  
  42   20:20   40.5    84    4.9   245      6.0   881.7    0.00       0     8.0  
  42   20:30   41.1    82    3.0   224      5.1   881.8    0.00       0     8.0  
  42   20:40   40.7    83    5.3   226      6.9   881.7    0.00       0     7.9  
  42   20:50   39.8    85    6.3   242      7.8   881.8    0.00       0     7.9  
  42   21:00   39.0    87    5.0   238      6.9   881.7    0.00       0     7.8  
  42   21:10   38.7    88    5.2   224      6.9   881.6    0.00       0     7.8  
  42   21:20   38.5    88    4.8   231      6.0   881.7    0.00       0     7.7  
  42   21:30   38.2    88    4.9   244      6.9   881.6    0.00       0     7.6  
  42   21:40   37.9    88    5.0   236      6.0   881.7    0.00       0     7.6  
  42   21:50   38.0    90    6.0   244      7.8   881.8    0.00       0     7.5  
  42   22:00   39.2    87    6.6   244      7.8   881.9    0.00       0     7.4  
  42   22:10   39.7    86    6.9   244      8.7   881.9    0.00       0     7.4  
  42   22:20   39.9    87    7.8   263      9.6   882.1    0.00       0     7.3  
  42   22:30   40.2    86    2.9   276      6.0   882.1    0.00       0     7.3  
  42   22:40   40.9    84    2.6   265      3.3   882.1    0.00       0     7.2  
  42   22:50   40.2    84    3.5   253      5.1   882.2    0.00       0     7.2  
  42   23:00   39.4    87    1.4    27      3.3   882.2    0.00       0     7.1  
  42   23:10   42.1    81    1.8   193      4.2   882.2    0.00       0     7.1  
  42   23:20   41.2    81    3.1   183      4.2   882.2    0.00       0     7.0  
  42   23:30   40.5    83    3.6   179      5.1   882.1    0.00       0     7.0  
  42   23:40   39.8    84    3.0   217      6.0   882.1    0.00       0     6.9  
  42   23:50   38.3    87    2.8   215      5.1   882.1    0.00       0     6.8  
  43    0:00   39.0    86    4.6   207      6.9   882.1    0.00       0     6.8  
  43    0:10   37.5    88    4.5   245      6.0   882.2    0.00       0     6.7  
  43    0:20   37.4    89    4.1   215      5.1   882.2    0.00       0     6.7  
  43    0:30   37.6    89    4.9   221      6.9   882.2    0.00       0     6.6  
  43    0:40   36.8    89    5.9   237      6.9   882.2    0.00       0     6.6  
  43    0:50   37.1    89    5.7   246      6.9   882.1    0.00       0     6.5  
  43    1:00   37.0    88    5.9   243      6.9   882.2    0.00       0     6.5  
  43    1:10   36.4    89    3.3   286      6.0   882.1    0.00       0     6.4  
  43    1:20   36.4    90    1.1   339      3.3   882.2    0.00       0     6.4  
  43    1:30   35.8    90    4.2   114      6.0   882.2    0.00       0     6.3  
  43    1:40   35.0    93    4.8   136      6.0   882.3    0.00       0     6.3  
  43    1:50   34.4    94    1.5    76      4.2   882.4    0.00       0     6.2  
  43    2:00   34.8    96    1.0   144      2.4   882.4    0.00       0     6.2  
  43    2:10   34.9    95    2.1   179      3.3   882.4    0.00       0     6.1  
  43    2:20   33.6    94    2.8   201      4.2   882.4    0.00       0     6.1  
  43    2:30   34.0    94    2.8   188      4.2   882.3    0.00       0     6.0  
  43    2:40   33.8    94    3.7   192      5.1   882.3    0.00       0     6.0  
  43    2:50   34.1    94    3.5   237      5.1   882.3    0.00       0     5.9  
  43    3:00   34.0    94    2.7   255      3.3   882.3    0.00       0     5.9  
  43    3:10   34.8    93    1.7   242      2.4   882.3    0.00       0     5.8  
  43    3:20   34.8    92    3.0   210      4.2   882.4    0.00       0     5.8  
  43    3:30   35.1    92    4.8   239      6.0   882.4    0.00       0     5.7  
  43    3:40   35.8    92    4.4   232      5.1   882.3    0.00       0     5.7  
  43    3:50   36.4    90    4.2   240      5.1   882.2    0.00       0     5.6  
  43    4:00   35.0    91    4.3   248      5.1   882.2    0.00       0     5.6  
  43    4:10   34.8    92    3.5   228      4.2   882.2    0.00       0     5.5  
  43    4:20   35.1    92    3.9   208      6.0   882.1    0.00       0     5.5  
  43    4:30   34.2    92    3.8   230      5.1   882.2    0.00       0     5.4  
  43    4:40   34.8    94    3.7   244      5.1   882.2    0.00       0     5.4  
  43    4:50   34.7    92    2.7   277      3.3   882.4    0.00       0     5.4  
  43    5:00   35.2    93    2.0   303      3.3   882.4    0.00       0     5.3  
  43    5:10   35.3    92    0.8   318      2.4   882.4    0.00       0     5.3  
  43    5:20   35.5    92    2.4   171      3.3   882.4    0.00       0     5.2  
  43    5:30   35.4    92    2.8   186      5.1   882.5    0.00       0     5.2  
  43    5:40   35.6    91    3.9   226      5.1   882.5    0.00       0     5.2  
  43    5:50   35.5    92    5.4   232      6.9   882.5    0.00       0     5.1  
  43    6:00   35.1    92    6.0   241      7.8   882.5    0.00       0     5.1  
  43    6:10   35.1    92    4.4   243      6.9   882.6    0.00       0     5.0  
  43    6:20   35.1    93    4.4   252      6.0   882.6    0.00       0     5.0  
  43    6:30   35.6    92    3.2   241      4.2   882.7    0.00       0     5.0  
  43    6:40   36.0    90    5.6   250      6.9   882.7    0.00       0     4.9  
  43    6:50   35.5    90    5.3   235      6.0   882.8    0.00       2     4.9  
  43    7:00   34.9    92    2.7   166      6.0   882.8    0.00       7     4.9  
  43    7:10   35.3    93    1.1   146      2.4   882.8    0.00      15     4.8  
  43    7:20   35.4    92    1.2   138      2.4   882.8    0.00      31     4.8  

Return to Garden Spring, Nevada graphs page.


Western Regional Climate Center,wrcc@dri.edu